Time;durP1;ratioP1;P1;durP2;ratioP2;P2;SDS_P1;SDS_P2;PMS_P1;PMS_P2;Temp;Humidity;BMP_temperature;BMP_pressure;BME280_temperature;BME280_humidity;BME280_pressure;Samples;Min_cycle;Max_cycle;Signal;HPM_P1;HPM_P2
2022/04/15 00:00:40;;;;;;;;;;;11.10;99.90;;;;;;5056616;28;20347;-66
2022/04/15 00:03:06;;;;;;;;;;;10.90;99.90;;;;;;5056279;28;20417;-66
2022/04/15 00:05:36;;;;;;;;;;;10.90;99.90;;;;;;5056533;28;19911;-66
2022/04/15 00:08:06;;;;;;;;;;;10.90;99.90;;;;;;5056166;28;19905;-67
2022/04/15 00:10:32;;;;;;;;;;;11.00;99.90;;;;;;5056153;28;19911;-66
2022/04/15 00:12:59;;;;;;;;;;;11.00;99.90;;;;;;5056434;28;20373;-67
2022/04/15 00:15:24;;;;;;;;;;;11.00;99.90;;;;;;5056060;28;19908;-67
2022/04/15 00:17:50;;;;;;;;;;;11.00;99.90;;;;;;5056367;28;20327;-68
2022/04/15 00:20:16;;;;;;;;;;;11.00;99.90;;;;;;5056017;28;20005;-67
2022/04/15 00:22:41;;;;;;;;;;;10.90;99.90;;;;;;5055956;28;19916;-66
2022/04/15 00:25:07;;;;;;;;;;;10.80;99.90;;;;;;5055726;28;19923;-67
2022/04/15 00:27:34;;;;;;;;;;;10.70;99.90;;;;;;5055863;28;19993;-67
2022/04/15 00:29:59;;;;;;;;;;;10.70;99.90;;;;;;5056089;28;19904;-66
2022/04/15 00:32:26;;;;;;;;;;;10.70;99.90;;;;;;5055731;28;19905;-67
2022/04/15 00:34:53;;;;;;;;;;;10.70;99.90;;;;;;5055640;28;19904;-66
2022/04/15 00:37:18;;;;;;;;;;;10.60;99.90;;;;;;5055661;28;19959;-69
2022/04/15 00:39:46;;;;;;;;;;;10.70;99.90;;;;;;5056161;28;19908;-67
2022/04/15 00:42:12;;;;;;;;;;;10.70;99.90;;;;;;5055580;28;19905;-67
2022/04/15 00:44:37;;;;;;;;;;;10.70;99.90;;;;;;5055546;28;19951;-66
2022/04/15 00:47:07;;;;;;;;;;;10.70;99.90;;;;;;5055482;28;19905;-68
2022/04/15 00:49:34;;;;;;;;;;;10.70;99.90;;;;;;5055710;28;20351;-66
2022/04/15 00:52:00;;;;;;;;;;;10.70;99.90;;;;;;5055664;28;20332;-66
2022/04/15 00:54:29;;;;;;;;;;;10.60;99.90;;;;;;5055625;28;19912;-66
2022/04/15 00:56:57;;;;;;;;;;;10.50;99.90;;;;;;5055538;28;19924;-66
2022/04/15 00:59:23;;;;;;;;;;;10.50;99.90;;;;;;5054551;28;19956;-66
2022/04/15 01:01:49;;;;;;;;;;;10.50;99.90;;;;;;5055203;28;20294;-66
2022/04/15 01:04:15;;;;;;;;;;;10.60;99.90;;;;;;5055441;28;19939;-67
2022/04/15 01:06:41;;;;;;;;;;;10.60;99.90;;;;;;5055418;28;19911;-67
2022/04/15 01:09:06;;;;;;;;;;;10.60;99.90;;;;;;5055076;28;19908;-67
2022/04/15 01:11:33;;;;;;;;;;;10.60;99.90;;;;;;5055596;28;19995;-69
2022/04/15 01:14:00;;;;;;;;;;;10.60;99.90;;;;;;5055014;28;19979;-67
2022/04/15 01:16:27;;;;;;;;;;;10.70;99.90;;;;;;5036936;28;19954;-66
2022/04/15 01:18:52;;;;;;;;;;;10.60;99.90;;;;;;5054902;28;19904;-67
2022/04/15 01:21:19;;;;;;;;;;;10.50;99.90;;;;;;5054897;28;19909;-66
2022/04/15 01:23:44;;;;;;;;;;;10.40;99.90;;;;;;5054655;28;19967;-67
2022/04/15 01:26:10;;;;;;;;;;;10.30;99.90;;;;;;5055076;28;20361;-65
2022/04/15 01:28:35;;;;;;;;;;;10.30;99.90;;;;;;5054971;28;19905;-66
2022/04/15 01:31:01;;;;;;;;;;;10.20;99.90;;;;;;5055190;28;19912;-67
2022/04/15 01:33:26;;;;;;;;;;;10.20;99.90;;;;;;5054622;28;20385;-67
2022/04/15 01:35:52;;;;;;;;;;;10.10;99.90;;;;;;5054495;28;19998;-66
2022/04/15 01:38:18;;;;;;;;;;;10.00;99.90;;;;;;5054802;28;19943;-66
2022/04/15 01:40:43;;;;;;;;;;;9.90;99.90;;;;;;5054460;28;19912;-68
2022/04/15 01:43:10;;;;;;;;;;;9.70;99.90;;;;;;5054423;28;20027;-66
2022/04/15 01:45:35;;;;;;;;;;;9.70;99.90;;;;;;5054659;28;20439;-66
2022/04/15 01:48:01;;;;;;;;;;;9.70;99.90;;;;;;5054339;28;19936;-67
2022/04/15 01:50:28;;;;;;;;;;;9.70;99.90;;;;;;5054832;28;19944;-67
2022/04/15 01:52:54;;;;;;;;;;;9.90;99.90;;;;;;5036396;28;19905;-66
2022/04/15 01:55:19;;;;;;;;;;;9.90;99.90;;;;;;5054399;28;19975;-66
2022/04/15 01:57:45;;;;;;;;;;;9.80;99.90;;;;;;5054463;28;19911;-67
2022/04/15 02:00:11;;;;;;;;;;;9.80;99.90;;;;;;5054143;28;20355;-67
2022/04/15 02:02:36;;;;;;;;;;;9.70;99.90;;;;;;5054680;28;20312;-66
2022/04/15 02:05:02;;;;;;;;;;;9.60;99.90;;;;;;5054028;28;20355;-66
2022/04/15 02:07:27;;;;;;;;;;;9.50;99.90;;;;;;5054568;28;19995;-67
2022/04/15 02:09:53;;;;;;;;;;;9.50;99.90;;;;;;5054202;28;19927;-66
2022/04/15 02:12:18;;;;;;;;;;;9.50;99.90;;;;;;5052937;28;19915;-66
2022/04/15 02:14:46;;;;;;;;;;;9.40;99.90;;;;;;5054040;28;19912;-66
2022/04/15 02:17:11;;;;;;;;;;;9.40;99.90;;;;;;5054052;28;19908;-67
2022/04/15 02:19:37;;;;;;;;;;;9.40;99.90;;;;;;5054064;28;20386;-66
2022/04/15 02:22:02;;;;;;;;;;;9.40;99.90;;;;;;5053792;28;19912;-66
2022/04/15 02:24:28;;;;;;;;;;;9.30;99.90;;;;;;5053557;28;19916;-66
2022/04/15 02:26:53;;;;;;;;;;;9.30;99.90;;;;;;5053700;28;20325;-67
2022/04/15 02:29:19;;;;;;;;;;;9.20;99.90;;;;;;5053625;28;19971;-67
2022/04/15 02:31:44;;;;;;;;;;;9.20;99.90;;;;;;5053929;28;19948;-69
2022/04/15 02:34:10;;;;;;;;;;;9.20;99.90;;;;;;5053596;28;19905;-66
2022/04/15 02:36:35;;;;;;;;;;;9.20;99.90;;;;;;5053819;28;20385;-67
2022/04/15 02:39:01;;;;;;;;;;;9.20;99.90;;;;;;5053545;28;20290;-66
2022/04/15 02:41:26;;;;;;;;;;;9.20;99.90;;;;;;5053546;28;19905;-66
2022/04/15 02:43:54;;;;;;;;;;;9.30;99.90;;;;;;5054091;28;19905;-67
2022/04/15 02:46:20;;;;;;;;;;;9.20;99.90;;;;;;5053774;28;19908;-66
2022/04/15 02:48:45;;;;;;;;;;;9.20;99.90;;;;;;5053465;28;19904;-66
2022/04/15 02:51:14;;;;;;;;;;;9.20;99.90;;;;;;5053722;28;19912;-66
2022/04/15 02:53:39;;;;;;;;;;;9.20;99.90;;;;;;5053691;28;20020;-67
2022/04/15 02:56:05;;;;;;;;;;;9.30;99.90;;;;;;5053896;28;19956;-67
2022/04/15 02:58:30;;;;;;;;;;;9.30;99.90;;;;;;5053383;28;20254;-67
2022/04/15 03:00:56;;;;;;;;;;;9.20;99.90;;;;;;5053635;28;20346;-66
2022/04/15 03:03:21;;;;;;;;;;;9.20;99.90;;;;;;5053312;28;19995;-66
2022/04/15 03:05:47;;;;;;;;;;;9.20;99.90;;;;;;5053314;28;19905;-67
2022/04/15 03:08:12;;;;;;;;;;;9.20;99.90;;;;;;5053321;28;19909;-66
2022/04/15 03:10:38;;;;;;;;;;;9.10;99.90;;;;;;5053617;28;19905;-67
2022/04/15 03:13:03;;;;;;;;;;;9.10;99.90;;;;;;5053253;28;19905;-67
2022/04/15 03:15:29;;;;;;;;;;;9.10;99.90;;;;;;5053132;28;20279;-67
2022/04/15 03:17:54;;;;;;;;;;;9.00;99.90;;;;;;5053752;28;19912;-66
2022/04/15 03:20:21;;;;;;;;;;;9.00;99.90;;;;;;5053176;28;19962;-67
2022/04/15 03:22:47;;;;;;;;;;;9.00;99.90;;;;;;5054140;28;19904;-68
2022/04/15 03:25:14;;;;;;;;;;;8.90;99.90;;;;;;5056853;28;19917;-67
2022/04/15 03:27:40;;;;;;;;;;;8.90;99.90;;;;;;5039098;28;20286;-66
2022/04/15 03:30:06;;;;;;;;;;;8.90;99.90;;;;;;5057547;28;19904;-66
2022/04/15 03:32:32;;;;;;;;;;;8.80;99.90;;;;;;5056904;28;19947;-67
2022/04/15 03:34:58;;;;;;;;;;;8.70;99.90;;;;;;5056781;28;19905;-66
2022/04/15 03:37:24;;;;;;;;;;;8.70;99.90;;;;;;5057097;28;19951;-66
2022/04/15 03:39:49;;;;;;;;;;;8.70;99.90;;;;;;5056755;28;19912;-66
2022/04/15 03:42:15;;;;;;;;;;;8.80;99.90;;;;;;5057041;28;20295;-66
2022/04/15 03:44:41;;;;;;;;;;;8.70;99.90;;;;;;5056679;28;19944;-66
2022/04/15 03:47:06;;;;;;;;;;;8.70;99.90;;;;;;5056676;28;19905;-66
2022/04/15 03:49:32;;;;;;;;;;;8.70;99.90;;;;;;5056873;28;19904;-67
2022/04/15 03:51:58;;;;;;;;;;;8.70;99.90;;;;;;5056562;28;20267;-66
2022/04/15 03:54:23;;;;;;;;;;;8.70;99.90;;;;;;5056529;28;19912;-66
2022/04/15 03:56:49;;;;;;;;;;;8.70;99.90;;;;;;5056952;28;19908;-66
2022/04/15 03:59:15;;;;;;;;;;;8.50;99.90;;;;;;5056734;28;19904;-66
2022/04/15 04:01:40;;;;;;;;;;;8.40;99.90;;;;;;5056929;28;20359;-67
2022/04/15 04:04:06;;;;;;;;;;;8.40;99.90;;;;;;5056340;28;19911;-69
2022/04/15 04:06:31;;;;;;;;;;;8.40;99.90;;;;;;5056525;28;19955;-67
2022/04/15 04:08:57;;;;;;;;;;;8.30;99.90;;;;;;5056237;28;19911;-66
2022/04/15 04:11:23;;;;;;;;;;;8.40;99.90;;;;;;5056196;28;19905;-66
2022/04/15 04:13:48;;;;;;;;;;;8.40;99.90;;;;;;5056699;28;19908;-67
2022/04/15 04:16:14;;;;;;;;;;;8.40;99.90;;;;;;5055965;28;19963;-67
2022/04/15 04:18:40;;;;;;;;;;;8.40;99.90;;;;;;5056636;28;19905;-67
2022/04/15 04:21:05;;;;;;;;;;;8.50;99.90;;;;;;5055987;28;19904;-67
2022/04/15 04:23:31;;;;;;;;;;;8.50;99.90;;;;;;5037631;28;19909;-66
2022/04/15 04:25:56;;;;;;;;;;;8.40;99.90;;;;;;5056205;28;19967;-67
2022/04/15 04:28:22;;;;;;;;;;;8.40;99.90;;;;;;5055868;28;19937;-67
2022/04/15 04:30:47;;;;;;;;;;;8.40;99.90;;;;;;5055800;28;19905;-66
2022/04/15 04:33:13;;;;;;;;;;;8.30;99.90;;;;;;5056041;28;19905;-66
2022/04/15 04:35:39;;;;;;;;;;;8.40;99.90;;;;;;5054594;28;19913;-66
2022/04/15 04:38:07;;;;;;;;;;;8.40;99.90;;;;;;5056260;28;19904;-66
2022/04/15 04:40:33;;;;;;;;;;;8.40;99.90;;;;;;5055601;28;19911;-66
2022/04/15 04:43:00;;;;;;;;;;;8.30;99.90;;;;;;5038485;28;19947;-66
2022/04/15 04:45:25;;;;;;;;;;;8.20;99.90;;;;;;5037660;28;20333;-66
2022/04/15 04:47:52;;;;;;;;;;;8.20;99.90;;;;;;5055504;28;19905;-66
2022/04/15 04:50:18;;;;;;;;;;;8.30;99.90;;;;;;5055470;28;20274;-66
2022/04/15 04:52:46;;;;;;;;;;;8.30;99.90;;;;;;5055463;28;19912;-66
2022/04/15 04:55:12;;;;;;;;;;;8.30;99.90;;;;;;5055610;28;19911;-66
2022/04/15 04:57:42;;;;;;;;;;;8.20;99.90;;;;;;5055372;28;19999;-66
2022/04/15 05:00:11;;;;;;;;;;;8.20;99.90;;;;;;5055585;28;19904;-66
2022/04/15 05:02:37;;;;;;;;;;;8.20;99.90;;;;;;5055218;28;20425;-68
2022/04/15 05:05:03;;;;;;;;;;;8.20;99.90;;;;;;5055500;28;19905;-66
2022/04/15 05:07:29;;;;;;;;;;;8.30;99.90;;;;;;5055136;28;19908;-66
2022/04/15 05:09:54;;;;;;;;;;;8.30;99.90;;;;;;5055362;28;20034;-66
2022/04/15 05:12:20;;;;;;;;;;;8.40;99.90;;;;;;5055034;28;19912;-67
2022/04/15 05:14:45;;;;;;;;;;;8.40;99.90;;;;;;5055154;28;19905;-65
2022/04/15 05:17:11;;;;;;;;;;;8.20;99.90;;;;;;5054921;28;19908;-66
2022/04/15 05:19:36;;;;;;;;;;;8.20;99.90;;;;;;5054901;28;19947;-66
2022/04/15 05:22:02;;;;;;;;;;;8.20;99.90;;;;;;5055120;28;19990;-67
2022/04/15 05:24:28;;;;;;;;;;;8.40;99.90;;;;;;5054539;28;19916;-66
2022/04/15 05:26:53;;;;;;;;;;;8.30;99.90;;;;;;5054775;28;19904;-68
2022/04/15 05:29:19;;;;;;;;;;;8.10;99.90;;;;;;5054645;28;20283;-68
2022/04/15 05:31:44;;;;;;;;;;;8.30;99.90;;;;;;5054682;28;19995;-66
2022/04/15 05:34:10;;;;;;;;;;;8.50;99.90;;;;;;5055197;28;19955;-66
2022/04/15 05:36:36;;;;;;;;;;;8.50;99.90;;;;;;5054529;28;19916;-67
2022/04/15 05:39:01;;;;;;;;;;;8.30;99.90;;;;;;5054523;28;19950;-67
2022/04/15 05:41:27;;;;;;;;;;;8.30;99.90;;;;;;5054497;28;19950;-67
2022/04/15 05:43:53;;;;;;;;;;;8.20;99.90;;;;;;5054487;28;19908;-67
2022/04/15 05:46:19;;;;;;;;;;;8.40;99.90;;;;;;5054433;28;19909;-66
2022/04/15 05:48:44;;;;;;;;;;;8.70;99.90;;;;;;5054374;28;20377;-66
2022/04/15 05:51:10;;;;;;;;;;;8.80;99.90;;;;;;5054854;28;19999;-67
2022/04/15 05:53:36;;;;;;;;;;;8.60;99.90;;;;;;5054233;28;20309;-66
2022/04/15 05:56:01;;;;;;;;;;;8.40;99.90;;;;;;5054435;28;19958;-66
2022/04/15 05:58:27;;;;;;;;;;;8.40;99.90;;;;;;5054144;28;19954;-67
2022/04/15 06:00:53;;;;;;;;;;;8.50;99.90;;;;;;5054003;28;19904;-65
2022/04/15 06:03:20;;;;;;;;;;;8.80;99.90;;;;;;5054030;28;19974;-67
2022/04/15 06:05:51;;;;;;;;;;;8.80;99.90;;;;;;5054303;28;19904;-66
2022/04/15 06:08:17;;;;;;;;;;;8.90;99.90;;;;;;5054016;28;20375;-68
2022/04/15 06:10:42;;;;;;;;;;;9.20;99.90;;;;;;5036116;28;19912;-66
2022/04/15 06:13:19;;;;;;;;;;;9.30;99.90;;;;;;5053885;28;19999;-66
2022/04/15 06:15:52;;;;;;;;;;;9.30;99.90;;;;;;5035819;28;20003;-66
2022/04/15 06:18:19;;;;;;;;;;;9.50;99.90;;;;;;5054173;28;19930;-65
2022/04/15 06:20:45;;;;;;;;;;;9.50;99.90;;;;;;5053828;28;19905;-66
2022/04/15 06:23:10;;;;;;;;;;;9.70;99.90;;;;;;5054119;28;20325;-67
2022/04/15 06:25:36;;;;;;;;;;;9.90;99.90;;;;;;5053360;28;19946;-66
2022/04/15 06:28:02;;;;;;;;;;;9.90;99.90;;;;;;5035873;28;20358;-66
2022/04/15 06:30:27;;;;;;;;;;;10.20;99.90;;;;;;5054210;28;19905;-67
2022/04/15 06:32:53;;;;;;;;;;;11.00;99.90;;;;;;5053623;28;19905;-67
2022/04/15 06:35:19;;;;;;;;;;;12.70;99.90;;;;;;5053571;28;19908;-66
2022/04/15 06:37:44;;;;;;;;;;;15.40;99.90;;;;;;5053873;28;20355;-67
2022/04/15 06:40:11;;;;;;;;;;;17.30;99.90;;;;;;5053536;28;19905;-66
2022/04/15 06:42:37;;;;;;;;;;;18.80;99.90;;;;;;5053843;28;19904;-67
2022/04/15 06:45:03;;;;;;;;;;;19.80;99.90;;;;;;5053517;28;19909;-67
2022/04/15 06:47:28;;;;;;;;;;;20.60;99.90;;;;;;5053737;28;19928;-67
2022/04/15 06:49:54;;;;;;;;;;;21.10;99.90;;;;;;5053491;28;20341;-67
2022/04/15 06:52:19;;;;;;;;;;;21.20;99.90;;;;;;5053981;28;19932;-68
2022/04/15 06:54:45;;;;;;;;;;;21.60;99.30;;;;;;5053408;28;19928;-68
2022/04/15 06:57:11;;;;;;;;;;;21.80;98.90;;;;;;5053333;28;20290;-67
2022/04/15 06:59:36;;;;;;;;;;;22.10;98.20;;;;;;5057783;28;19904;-68
2022/04/15 07:02:02;;;;;;;;;;;22.20;97.50;;;;;;5057557;28;19905;-67
2022/04/15 07:04:28;;;;;;;;;;;22.30;97.30;;;;;;5057501;28;19904;-67
2022/04/15 07:06:54;;;;;;;;;;;22.80;96.70;;;;;;5057703;28;19904;-67
2022/04/15 07:09:19;;;;;;;;;;;23.70;95.90;;;;;;5057387;28;19959;-70
2022/04/15 07:11:45;;;;;;;;;;;24.50;95.20;;;;;;5057335;28;19913;-67
2022/04/15 07:14:10;;;;;;;;;;;25.40;93.70;;;;;;5057472;28;19935;-69
2022/04/15 07:16:36;;;;;;;;;;;26.10;92.20;;;;;;5057437;28;19909;-69
2022/04/15 07:19:04;;;;;;;;;;;26.40;91.80;;;;;;5057178;28;19948;-69
2022/04/15 07:21:33;;;;;;;;;;;26.60;90.20;;;;;;5057118;28;20358;-68
2022/04/15 07:23:59;;;;;;;;;;;26.70;89.30;;;;;;5059124;28;20281;-70
2022/04/15 07:26:24;;;;;;;;;;;26.40;89.50;;;;;;5057382;28;20003;-68
2022/04/15 07:28:50;;;;;;;;;;;26.20;89.10;;;;;;5056995;28;19999;-68
2022/04/15 07:31:16;;;;;;;;;;;26.40;88.80;;;;;;5056978;28;19909;-69
2022/04/15 07:33:41;;;;;;;;;;;27.00;87.40;;;;;;5057236;28;19970;-67
2022/04/15 07:36:31;;;;;;;;;;;27.00;86.40;;;;;;5056863;28;19915;-67
2022/04/15 07:38:52;;;;;;;;;;;27.30;85.80;;;;;;5056686;28;19905;-69
2022/04/15 07:41:17;;;;;;;;;;;28.00;83.60;;;;;;5056791;28;19912;-67
2022/04/15 07:43:44;;;;;;;;;;;28.60;82.20;;;;;;5056989;28;20060;-69
2022/04/15 07:46:10;;;;;;;;;;;28.60;81.50;;;;;;5056679;28;19905;-69
2022/04/15 07:48:36;;;;;;;;;;;28.70;81.00;;;;;;5056937;28;19927;-69
2022/04/15 07:51:03;;;;;;;;;;;29.00;80.00;;;;;;5056604;28;19905;-68
2022/04/15 07:53:28;;;;;;;;;;;28.70;80.60;;;;;;5056593;28;19905;-69
2022/04/15 07:55:54;;;;;;;;;;;28.80;80.00;;;;;;5056889;28;20359;-69
2022/04/15 07:58:19;;;;;;;;;;;28.70;80.40;;;;;;5056795;28;19983;-72
2022/04/15 08:00:45;;;;;;;;;;;29.70;78.90;;;;;;5056430;28;20373;-67
2022/04/15 08:03:11;;;;;;;;;;;29.60;78.10;;;;;;5056644;28;19951;-70
2022/04/15 08:05:37;;;;;;;;;;;29.80;77.90;;;;;;5056295;28;19911;-68
2022/04/15 08:08:02;;;;;;;;;;;30.30;76.20;;;;;;5056819;28;19909;-70
2022/04/15 08:10:28;;;;;;;;;;;30.50;75.60;;;;;;5056137;28;19905;-70
2022/04/15 08:12:54;;;;;;;;;;;31.50;73.70;;;;;;5056432;28;19905;-71
2022/04/15 08:15:20;;;;;;;;;;;32.10;72.90;;;;;;5056025;28;19959;-71
2022/04/15 08:17:46;;;;;;;;;;;31.80;71.20;;;;;;5056685;28;19939;-71
2022/04/15 08:20:11;;;;;;;;;;;32.40;70.80;;;;;;5056359;28;20295;-72
2022/04/15 08:22:37;;;;;;;;;;;33.30;68.40;;;;;;5056324;28;19904;-72
2022/04/15 08:25:04;;;;;;;;;;;34.10;67.30;;;;;;5055737;28;19939;-72
2022/04/15 08:27:29;;;;;;;;;;;34.20;65.10;;;;;;5055877;28;19909;-72
2022/04/15 08:29:56;;;;;;;;;;;34.10;64.30;;;;;;5056029;28;19924;-73
2022/04/15 08:32:22;;;;;;;;;;;33.90;63.40;;;;;;5055857;28;19950;-72
2022/04/15 08:34:48;;;;;;;;;;;33.80;63.40;;;;;;5056199;28;19905;-72
2022/04/15 08:37:13;;;;;;;;;;;34.50;61.80;;;;;;5055683;28;20354;-73
2022/04/15 08:39:40;;;;;;;6.55;3.70;;;34.70;60.60;;;;;;5055323;28;19942;-72
2022/04/15 08:42:09;;;;;;;12.77;5.18;;;34.90;60.20;;;;;;5055204;28;20029;-73
2022/04/15 08:44:35;;;;;;;6.68;3.88;;;34.90;59.70;;;;;;5055357;28;20491;-72
2022/04/15 08:47:02;;;;;;;9.52;4.25;;;34.30;59.90;;;;;;5055250;28;20063;-73
2022/04/15 08:49:29;;;;;;;17.05;5.28;;;34.20;59.70;;;;;;5055027;28;20052;-73
2022/04/15 08:51:55;;;;;;;12.25;4.03;;;34.50;59.10;;;;;;5055012;28;20158;-72
2022/04/15 08:54:21;;;;;;;9.70;3.88;;;34.30;59.70;;;;;;5054978;28;20025;-72
2022/04/15 08:56:48;;;;;;;4.82;3.92;;;34.50;59.50;;;;;;5054919;28;20017;-72
2022/04/15 08:59:16;;;;;;;6.60;3.80;;;35.60;58.10;;;;;;5054833;28;20025;-74
2022/04/15 09:01:43;;;;;;;5.20;3.47;;;35.10;57.80;;;;;;5054819;28;19916;-77
2022/04/15 09:04:09;;;;;;;;;;;34.80;58.50;;;;;;5055244;28;19904;-76
2022/04/15 09:06:34;;;;;;;11.82;4.00;;;35.40;57.50;;;;;;5054675;28;19909;-74
2022/04/15 09:09:14;;;;;;;6.07;3.70;;;35.20;57.80;;;;;;5054645;28;20021;-71
2022/04/15 09:11:41;;;;;;;5.95;3.15;;;35.20;57.70;;;;;;5055214;28;20025;-73
2022/04/15 09:14:12;;;;;;;5.77;3.43;;;36.40;56.40;;;;;;5054639;28;20021;-72
2022/04/15 09:16:38;;;;;;;6.55;3.30;;;37.10;54.50;;;;;;5054523;28;20067;-72
2022/04/15 09:19:05;;;;;;;;;;;37.10;54.60;;;;;;5054661;28;20057;-73
2022/04/15 09:21:30;;;;;;;6.97;3.58;;;38.10;53.40;;;;;;5053937;28;19908;-73
2022/04/15 09:23:56;;;;;;;5.60;3.00;;;38.10;52.30;;;;;;5054123;28;20025;-73
2022/04/15 09:26:24;;;;;;;5.85;3.33;;;38.10;53.00;;;;;;5054603;28;20025;-72
2022/04/15 09:28:50;;;;;;;5.35;2.90;;;38.00;53.30;;;;;;5054295;28;20021;-72
2022/04/15 09:31:18;;;;;;;2.90;2.35;;;37.20;52.80;;;;;;5054562;28;20060;-73
2022/04/15 09:33:50;;;;;;;5.68;2.90;;;37.50;51.80;;;;;;5054274;28;20025;-73
2022/04/15 09:36:33;;;;;;;7.43;3.30;;;38.50;51.60;;;;;;5054145;28;20021;-73
2022/04/15 09:39:14;;;;;;;11.57;3.35;;;39.30;50.90;;;;;;5054403;28;19909;-72
2022/04/15 09:42:03;;;;;;;6.00;2.90;;;38.60;50.10;;;;;;5054344;28;20017;-72
2022/04/15 09:44:32;;;;;;;8.20;3.00;;;38.10;50.30;;;;;;5054371;28;20035;-71
2022/04/15 09:47:03;;;;;;;5.47;2.72;;;38.70;50.10;;;;;;5054137;28;20025;-73
2022/04/15 09:49:32;;;;;;;4.47;2.72;;;38.60;49.40;;;;;;5054459;28;20029;-73
2022/04/15 09:51:59;;;;;;;5.45;3.13;;;38.10;49.70;;;;;;5054172;28;20372;-73
2022/04/15 09:54:28;;;;;;;7.70;2.70;;;38.00;49.50;;;;;;5054109;28;20017;-72
2022/04/15 09:56:57;;;;;;;5.47;2.92;;;38.30;49.40;;;;;;5053993;28;20082;-71
2022/04/15 09:59:25;;;;;;;5.40;3.08;;;38.50;48.80;;;;;;5054015;28;20082;-72
2022/04/15 10:01:58;;;;;;;4.13;2.55;;;38.30;48.40;;;;;;5053662;28;20025;-72
2022/04/15 10:04:25;;;;;;;6.22;2.67;;;39.20;47.90;;;;;;5053640;28;20029;-73
2022/04/15 10:06:51;;;;;;;4.78;2.58;;;40.20;47.00;;;;;;5053514;28;20047;-72
2022/04/15 10:09:17;;;;;;;4.40;2.50;;;39.50;47.00;;;;;;5053548;28;20143;-72
2022/04/15 10:11:46;;;;;;;6.05;2.80;;;39.50;46.80;;;;;;5053783;28;20430;-73
2022/04/15 10:14:15;;;;;;;10.60;8.45;;;39.50;47.00;;;;;;5053429;28;20032;-74
2022/04/15 10:16:42;;;;;;;9.30;5.18;;;39.90;46.90;;;;;;5053463;28;20096;-74
2022/04/15 10:19:09;;;;;;;3.63;2.10;;;39.50;46.60;;;;;;5053402;28;20394;-74
2022/04/15 10:21:41;;;;;;;3.50;2.13;;;39.80;46.10;;;;;;5053432;28;20051;-72
2022/04/15 10:24:09;;;;;;;5.38;2.15;;;39.70;45.50;;;;;;5053432;28;20278;-73
2022/04/15 10:26:42;;;;;;;3.28;1.65;;;40.00;45.50;;;;;;5053543;28;20025;-71
2022/04/15 10:29:09;;;;;;;3.50;1.80;;;40.10;44.50;;;;;;5053602;28;20020;-72
2022/04/15 10:31:46;;;;;;;2.53;1.40;;;39.40;44.30;;;;;;5053011;28;20071;-72
2022/04/15 10:34:16;;;;;;;2.20;1.67;;;40.10;43.50;;;;;;5052952;28;20359;-71
2022/04/15 10:36:49;;;;;;;3.80;1.67;;;39.90;43.90;;;;;;5053114;28;20075;-73
2022/04/15 10:39:16;;;;;;;2.38;1.73;;;39.80;43.60;;;;;;5053154;28;20426;-73
2022/04/15 10:41:41;;;;;;;10.20;7.03;;;39.20;42.80;;;;;;5053146;28;20057;-72
2022/04/15 10:44:14;;;;;;;7.07;4.93;;;39.10;43.60;;;;;;5053365;28;20071;-73
2022/04/15 10:46:40;;;;;;;16.60;14.82;;;38.70;43.90;;;;;;5053321;28;20487;-73
2022/04/15 10:49:24;;;;;;;3.88;2.13;;;39.70;44.40;;;;;;5053042;28;20032;-74
2022/04/15 10:52:14;;;;;;;6.20;2.65;;;39.60;43.00;;;;;;5053256;28;20040;-74
2022/04/15 10:54:42;;;;;;;3.10;1.80;;;39.70;43.00;;;;;;5053527;28;20021;-74
2022/04/15 10:57:18;;;;;;;;;;;39.30;42.30;;;;;;5053686;28;20036;-72
2022/04/15 11:02:44;;;;;;;4.03;1.52;;;39.20;41.50;;;;;;5052729;28;20028;-72
2022/04/15 11:05:11;;;;;;;2.72;1.42;;;39.80;41.20;;;;;;5052915;28;20060;-73
2022/04/15 11:07:49;;;;;;;3.15;1.50;;;39.70;40.50;;;;;;5053350;28;20036;-73
2022/04/15 11:10:42;;;;;;;2.92;1.30;;;39.90;41.50;;;;;;5053154;28;20017;-74
2022/04/15 11:13:10;;;;;;;3.20;1.40;;;40.10;41.10;;;;;;5052834;28;20054;-71
2022/04/15 11:15:51;;;;;;;;;;;40.40;41.20;;;;;;5053154;28;20063;-73
2022/04/15 11:18:17;;;;;;;1.38;1.17;;;40.20;39.50;;;;;;5052792;28;19905;-73
2022/04/15 11:20:44;;;;;;;1.35;0.95;;;39.90;39.10;;;;;;5052740;28;20070;-71
2022/04/15 11:23:10;;;;;;;2.97;1.20;;;39.40;39.70;;;;;;5052759;28;20029;-72
2022/04/15 11:25:45;;;;;;;2.63;1.20;;;40.10;39.40;;;;;;5052492;28;20616;-71
2022/04/15 11:28:11;;;;;;;2.22;1.20;;;40.40;39.70;;;;;;5052723;28;20127;-72
2022/04/15 11:30:37;;;;;;;3.10;1.00;;;40.20;38.90;;;;;;5052703;28;20021;-72
2022/04/15 11:33:04;;;;;;;;;;;40.30;37.90;;;;;;5053317;28;20017;-71
2022/04/15 11:35:31;;;;;;;;;;;40.60;36.70;;;;;;5053040;28;19911;-73
2022/04/15 11:37:57;;;;;;;;;;;40.40;38.00;;;;;;5053026;28;19904;-72
2022/04/15 11:40:24;;;;;;;;;;;40.00;38.60;;;;;;5053626;28;19905;-71
2022/04/15 11:42:55;;;;;;;;;;;38.60;39.50;;;;;;5052963;28;19963;-72
2022/04/15 11:45:30;;;;;;;;;;;35.60;41.00;;;;;;5056614;28;20367;-71
2022/04/15 11:48:13;;;;;;;;;;;33.70;43.00;;;;;;5056761;28;19962;-73
2022/04/15 11:50:39;;;;;;;;;;;32.10;44.30;;;;;;5056968;28;19934;-71
2022/04/15 11:53:05;;;;;;;;;;;31.30;44.50;;;;;;5056903;28;20274;-71
2022/04/15 11:55:32;;;;;;;;;;;31.00;44.50;;;;;;5056538;28;19905;-72
2022/04/15 11:57:59;;;;;;;;;;;30.20;45.20;;;;;;5057067;28;19905;-72
2022/04/15 12:00:25;;;;;;;;;;;29.90;46.10;;;;;;5056435;28;19905;-72
2022/04/15 12:03:00;;;;;;;;;;;29.90;46.40;;;;;;5056775;28;19905;-71
2022/04/15 12:05:29;;;;;;;;;;;30.10;44.00;;;;;;5056231;28;19905;-73
2022/04/15 12:07:54;;;;;;;;;;;30.30;45.90;;;;;;5056300;28;19911;-71
2022/04/15 12:10:21;;;;;;;;;;;30.20;46.20;;;;;;5056566;28;19987;-72
2022/04/15 12:12:49;;;;;;;;;;;29.70;46.70;;;;;;5056498;28;19905;-72
2022/04/15 12:15:14;;;;;;;;;;;29.60;48.10;;;;;;5056098;28;19912;-71
2022/04/15 12:17:40;;;;;;;;;;;29.90;47.10;;;;;;5056091;28;19905;-73
2022/04/15 12:20:06;;;;;;;;;;;29.80;46.00;;;;;;5056315;28;19905;-71
2022/04/15 12:22:31;;;;;;;;;;;29.90;45.50;;;;;;5056030;28;19944;-71
2022/04/15 12:25:13;;;;;;;;;;;29.90;45.30;;;;;;5055823;28;19920;-71
2022/04/15 12:27:38;;;;;;;;;;;29.70;47.00;;;;;;5037878;28;20442;-72
2022/04/15 12:30:05;;;;;;;;;;;29.60;46.90;;;;;;5055977;28;19948;-72
2022/04/15 12:32:38;;;;;;;;;;;29.60;45.20;;;;;;5055694;28;20043;-72
2022/04/15 12:35:11;;;;;;;;;;;29.90;44.10;;;;;;5056403;28;19905;-72
2022/04/15 12:37:46;;;;;;;;;;;29.40;45.40;;;;;;5055768;28;19996;-71
2022/04/15 12:40:12;;;;;;;;;;;28.70;46.50;;;;;;5055949;28;19904;-72
2022/04/15 12:42:39;;;;;;;;;;;28.90;46.70;;;;;;5055961;28;19905;-72
2022/04/15 12:45:05;;;;;;;;;;;28.30;48.10;;;;;;5055562;28;19934;-72
2022/04/15 12:47:31;;;;;;;;;;;27.90;50.50;;;;;;5037458;28;19916;-71
2022/04/15 12:50:15;;;;;;;;;;;27.60;51.50;;;;;;5055779;28;19905;-71
2022/04/15 12:52:41;;;;;;;;;;;27.40;51.70;;;;;;5037548;28;20030;-71
2022/04/15 12:55:07;;;;;;;;;;;27.90;52.50;;;;;;5054799;28;19970;-71
2022/04/15 12:57:37;;;;;;;;;;;27.90;52.50;;;;;;5055039;28;19911;-71
2022/04/15 13:00:13;;;;;;;;;;;28.00;54.40;;;;;;5055619;28;19905;-70
2022/04/15 13:02:38;;;;;;;;;;;27.80;51.90;;;;;;5055328;28;19912;-72
2022/04/15 13:05:06;;;;;;;;;;;27.50;51.40;;;;;;5055813;28;19905;-71
2022/04/15 13:07:32;;;;;;;;;;;27.80;51.70;;;;;;5055082;28;20267;-72
2022/04/15 13:09:58;;;;;;;;;;;28.00;51.80;;;;;;5055151;28;19911;-71
2022/04/15 13:12:23;;;;;;;;;;;28.00;52.20;;;;;;5055115;28;19955;-71
2022/04/15 13:14:51;;;;;;;;;;;28.10;51.20;;;;;;5055001;28;19924;-72
2022/04/15 13:17:17;;;;;;;;;;;27.90;53.40;;;;;;5054967;28;20354;-72
2022/04/15 13:19:43;;;;;;;;;;;28.00;52.10;;;;;;5054913;28;19916;-72
2022/04/15 13:22:09;;;;;;;;;;;28.00;54.40;;;;;;5054876;28;19905;-72
2022/04/15 13:24:35;;;;;;;;;;;27.90;52.20;;;;;;5054548;28;19963;-72
2022/04/15 13:27:00;;;;;;;;;;;27.20;52.70;;;;;;5036679;28;20402;-72
2022/04/15 13:29:26;;;;;;;;;;;26.60;53.50;;;;;;5054766;28;19958;-71
2022/04/15 13:31:52;;;;;;;;;;;26.10;54.00;;;;;;5054730;28;19905;-71
2022/04/15 13:34:19;;;;;;;;;;;26.00;55.00;;;;;;5055158;28;19998;-71
2022/04/15 13:36:44;;;;;;;;;;;26.50;56.40;;;;;;5036490;28;19905;-71
2022/04/15 13:39:10;;;;;;;;;;;26.50;54.50;;;;;;5054795;28;19911;-72
2022/04/15 13:41:36;;;;;;;;;;;26.30;55.00;;;;;;5054613;28;19912;-72
2022/04/15 13:44:01;;;;;;;;;;;25.80;54.50;;;;;;5054273;28;19948;-72
2022/04/15 13:46:27;;;;;;;;;;;25.50;54.30;;;;;;5054287;28;19970;-71
2022/04/15 13:48:55;;;;;;;;;;;25.40;54.60;;;;;;5054144;28;19905;-71
2022/04/15 13:51:21;;;;;;;;;;;25.60;55.30;;;;;;5053937;28;19905;-71
2022/04/15 13:56:43;;;;;;;;;;;24.90;56.00;;;;;;5053875;28;19911;-71
2022/04/15 13:59:09;;;;;;;;;;;24.60;56.50;;;;;;5054193;28;20354;-71
2022/04/15 14:01:36;;;;;;;;;;;24.60;56.90;;;;;;5053881;28;20359;-71
2022/04/15 14:04:02;;;;;;;;;;;24.60;57.00;;;;;;5054356;28;19905;-72
2022/04/15 14:06:28;;;;;;;;;;;24.60;57.80;;;;;;5053785;28;20316;-71